createdAt,value
2023-04-04T00:02:13.268Z,2.00
2023-04-04T00:05:00.372Z,2.53
2023-04-04T00:07:47.918Z,2.40
2023-04-04T00:10:34.917Z,2.47
2023-04-04T00:13:21.937Z,1.13
2023-04-04T00:16:10.098Z,1.90
2023-04-04T00:18:57.060Z,1.40
2023-04-04T00:21:45.910Z,1.30
2023-04-04T00:24:33.780Z,1.97
2023-04-04T00:27:20.941Z,2.00
2023-04-04T00:30:08.727Z,2.07
2023-04-04T00:32:57.182Z,2.33
2023-04-04T00:35:44.355Z,1.40
2023-04-04T00:38:31.444Z,1.60
2023-04-04T00:41:18.414Z,1.53
2023-04-04T00:44:06.410Z,3.07
2023-04-04T00:46:54.207Z,1.50
2023-04-04T00:49:41.250Z,1.50
2023-04-04T00:52:28.315Z,1.60
2023-04-04T00:55:15.558Z,1.57
2023-04-04T00:58:03.124Z,2.10
2023-04-04T01:00:50.953Z,2.50
2023-04-04T01:03:39.601Z,1.50
2023-04-04T01:06:27.925Z,3.07
2023-04-04T01:09:14.984Z,1.70
2023-04-04T01:12:02.806Z,1.87
2023-04-04T01:14:51.685Z,2.87
2023-04-04T01:17:38.936Z,1.60
2023-04-04T01:20:29.257Z,1.70
2023-04-04T01:23:17.528Z,1.80
2023-04-04T01:26:06.722Z,1.63
2023-04-04T01:28:55.530Z,2.30
2023-04-04T01:31:52.171Z,4.23
2023-04-04T01:34:54.529Z,1.23
2023-04-04T01:37:52.617Z,1.90
2023-04-04T01:40:46.532Z,3.27
2023-04-04T01:43:33.669Z,1.70
2023-04-04T01:46:22.988Z,2.33
2023-04-04T01:49:11.368Z,2.13
2023-04-04T01:51:59.601Z,2.33
2023-04-04T01:54:47.319Z,2.10
2023-04-04T01:57:34.439Z,1.30
2023-04-04T02:00:21.475Z,1.60
2023-04-04T02:03:09.313Z,2.10
2023-04-04T02:05:56.294Z,1.33
2023-04-04T02:08:43.430Z,1.60
2023-04-04T02:11:31.607Z,1.40
2023-04-04T02:14:19.538Z,1.40
2023-04-04T02:17:06.894Z,1.73
2023-04-04T02:19:53.870Z,3.00
2023-04-04T02:22:40.881Z,1.33
2023-04-04T02:25:28.128Z,1.27
2023-04-04T02:28:15.071Z,2.30
2023-04-04T02:31:02.996Z,1.50
2023-04-04T02:33:49.983Z,1.40
2023-04-04T02:36:39.133Z,1.43
2023-04-04T02:39:26.523Z,1.53
2023-04-04T02:42:13.592Z,1.43
2023-04-04T02:45:00.747Z,2.90
2023-04-04T02:47:51.847Z,2.53
2023-04-04T02:50:43.273Z,1.43
2023-04-04T02:53:33.129Z,1.57
2023-04-04T02:56:30.236Z,3.97
2023-04-04T02:59:18.146Z,1.73
2023-04-04T03:02:05.530Z,2.13
2023-04-04T03:04:53.282Z,1.60
2023-04-04T03:07:40.309Z,1.37
2023-04-04T03:10:32.157Z,1.63
2023-04-04T03:13:19.160Z,1.90
2023-04-04T03:16:06.740Z,1.83
2023-04-04T03:19:08.076Z,1.70
2023-04-04T03:21:55.083Z,2.33
2023-04-04T03:24:42.117Z,2.20
2023-04-04T03:27:31.538Z,1.50
2023-04-04T03:30:18.680Z,2.53
2023-04-04T03:33:07.645Z,1.93
2023-04-04T03:35:54.762Z,1.50
2023-04-04T03:38:41.727Z,1.70
2023-04-04T03:41:30.284Z,1.63
2023-04-04T03:44:17.268Z,2.40
2023-04-04T03:47:04.744Z,1.73
2023-04-04T03:49:56.028Z,2.10
2023-04-04T03:52:43.714Z,1.67
2023-04-04T03:55:30.744Z,1.53
2023-04-04T03:58:19.930Z,2.17
2023-04-04T04:01:06.966Z,1.47
2023-04-04T04:03:54.283Z,1.67
2023-04-04T04:06:41.616Z,1.60
2023-04-04T04:09:28.568Z,1.47
2023-04-04T04:12:15.568Z,1.70
2023-04-04T04:15:02.523Z,1.50
2023-04-04T04:17:52.782Z,1.53
2023-04-04T04:20:40.167Z,1.60
2023-04-04T04:23:27.376Z,1.63
2023-04-04T04:26:14.362Z,1.47
2023-04-04T04:29:01.353Z,1.50
2023-04-04T04:31:53.149Z,1.87
2023-04-04T04:34:42.821Z,3.23
2023-04-04T04:37:29.924Z,1.67
2023-04-04T04:40:18.147Z,3.87
2023-04-04T04:43:14.499Z,1.53
2023-04-04T04:46:01.551Z,1.67
2023-04-04T04:48:48.717Z,2.10
2023-04-04T04:51:37.169Z,1.40
2023-04-04T04:54:25.197Z,1.50
2023-04-04T04:57:15.078Z,1.33
2023-04-04T05:00:05.148Z,1.83
2023-04-04T05:02:55.426Z,1.50
2023-04-04T05:05:51.320Z,2.20
2023-04-04T05:08:38.382Z,1.67
2023-04-04T05:11:48.682Z,1.97
2023-04-04T05:14:39.274Z,2.67
2023-04-04T05:17:26.722Z,1.70
2023-04-04T05:20:17.890Z,1.53
2023-04-04T05:23:07.914Z,2.03
2023-04-04T05:25:59.447Z,1.97
2023-04-04T05:28:50.750Z,1.67
2023-04-04T05:31:39.270Z,1.63
2023-04-04T05:34:34.603Z,1.80
2023-04-04T05:37:25.754Z,1.70
2023-04-04T05:40:13.103Z,2.00
2023-04-04T05:43:02.134Z,1.80
2023-04-04T05:45:55.489Z,2.73
2023-04-04T05:48:43.996Z,1.70
2023-04-04T05:51:31.355Z,3.40
2023-04-04T05:54:28.371Z,2.10
2023-04-04T05:57:16.697Z,1.90
2023-04-04T06:00:09.649Z,3.93
2023-04-04T06:03:01.968Z,1.63
2023-04-04T06:05:52.793Z,2.17
2023-04-04T06:08:52.400Z,1.80
2023-04-04T06:11:40.915Z,3.23
2023-04-04T06:14:30.766Z,1.70
2023-04-04T06:17:19.736Z,2.30
2023-04-04T06:20:08.325Z,1.77
2023-04-04T06:22:55.443Z,2.03
2023-04-04T06:25:42.525Z,2.93
2023-04-04T06:28:29.731Z,2.20
2023-04-04T06:31:17.699Z,2.13
2023-04-04T06:34:06.440Z,2.00
2023-04-04T06:36:59.454Z,1.87
2023-04-04T06:39:50.507Z,3.80
2023-04-04T06:42:52.334Z,2.13
2023-04-04T06:45:41.334Z,2.03
2023-04-04T06:48:28.346Z,2.33
2023-04-04T06:51:16.052Z,2.37
2023-04-04T06:54:05.569Z,4.47
2023-04-04T06:56:52.985Z,4.33
2023-04-04T06:59:41.942Z,2.37
2023-04-04T07:02:29.920Z,3.17
2023-04-04T07:05:18.084Z,4.50
2023-04-04T07:08:05.606Z,2.23
2023-04-04T07:10:52.620Z,2.67
2023-04-04T07:13:39.827Z,2.07
2023-04-04T07:16:26.815Z,2.50
2023-04-04T07:19:13.801Z,2.40
2023-04-04T07:22:00.785Z,3.57
2023-04-04T07:24:48.277Z,2.40
2023-04-04T07:27:36.003Z,3.07
2023-04-04T07:30:26.429Z,2.10
2023-04-04T07:33:13.482Z,1.97
2023-04-04T07:36:03.780Z,2.10
2023-04-04T07:38:51.236Z,2.37
2023-04-04T07:41:38.608Z,2.23
2023-04-04T07:44:25.559Z,3.10
2023-04-04T07:47:12.556Z,3.27
2023-04-04T07:49:59.531Z,2.20
2023-04-04T07:52:55.703Z,1.97
2023-04-04T07:55:42.669Z,2.70
2023-04-04T07:58:29.633Z,2.23
2023-04-04T08:01:16.580Z,2.67
2023-04-04T08:04:03.690Z,2.17
2023-04-04T08:06:50.736Z,2.20
2023-04-04T08:09:37.673Z,2.23
2023-04-04T08:12:24.617Z,2.27
2023-04-04T08:15:12.064Z,1.83
2023-04-04T08:17:59.171Z,2.50
2023-04-04T08:20:46.911Z,2.43
2023-04-04T08:23:33.985Z,3.03
2023-04-04T08:26:21.886Z,3.30
2023-04-04T08:29:09.070Z,1.80
2023-04-04T08:31:56.021Z,1.93
2023-04-04T08:34:42.956Z,2.20
2023-04-04T08:37:30.941Z,2.13
2023-04-04T08:40:18.005Z,2.73
2023-04-04T08:43:05.758Z,2.33
2023-04-04T08:45:54.092Z,2.30
2023-04-04T08:48:44.645Z,2.20
2023-04-04T08:51:32.958Z,2.10
2023-04-04T08:54:21.022Z,2.07
2023-04-04T08:57:08.442Z,1.90
2023-04-04T08:59:55.776Z,1.97
2023-04-04T09:02:46.009Z,1.87
2023-04-04T09:05:33.853Z,1.80
2023-04-04T09:08:23.721Z,1.90
2023-04-04T09:11:11.995Z,2.50
2023-04-04T09:14:00.354Z,1.80
2023-04-04T09:16:47.362Z,2.17
2023-04-04T09:19:34.328Z,2.37
2023-04-04T09:22:21.341Z,3.00
2023-04-04T09:25:08.781Z,1.93
2023-04-04T09:27:57.950Z,1.93
2023-04-04T09:30:48.516Z,2.10
2023-04-04T09:33:36.322Z,2.53
2023-04-04T09:36:24.950Z,2.50
2023-04-04T09:39:16.372Z,1.77
2023-04-04T09:42:03.649Z,3.40
2023-04-04T09:44:54.810Z,2.17
2023-04-04T09:47:42.837Z,2.27
2023-04-04T09:50:30.450Z,2.00
2023-04-04T09:53:18.594Z,2.87
2023-04-04T09:56:06.138Z,2.50
2023-04-04T09:59:03.434Z,2.53
2023-04-04T10:01:53.339Z,2.37
2023-04-04T10:04:40.617Z,2.03
2023-04-04T10:07:29.348Z,2.30
2023-04-04T10:10:16.433Z,2.20
2023-04-04T10:13:04.603Z,2.40
2023-04-04T10:15:53.078Z,3.03
2023-04-04T10:18:40.294Z,1.90
2023-04-04T10:21:27.916Z,2.00
2023-04-04T10:24:14.926Z,2.07
2023-04-04T10:27:01.882Z,1.83
2023-04-04T10:29:48.948Z,1.90
2023-04-04T10:33:01.286Z,1.97
2023-04-04T10:35:53.965Z,2.30
2023-04-04T10:38:43.649Z,1.80
2023-04-04T10:41:32.412Z,2.03
2023-04-04T10:44:38.904Z,2.33
2023-04-04T10:47:29.317Z,2.23
2023-04-04T10:50:16.740Z,2.40
2023-04-04T10:53:04.621Z,2.10
2023-04-04T10:55:52.959Z,2.20
2023-04-04T10:58:41.772Z,3.83
2023-04-04T11:01:54.481Z,2.03
2023-04-04T11:04:46.969Z,2.70
2023-04-04T11:07:36.834Z,2.53
2023-04-04T11:10:29.411Z,2.17
2023-04-04T11:13:24.863Z,3.47
2023-04-04T11:16:15.364Z,2.47
2023-04-04T11:19:02.513Z,2.27
2023-04-04T11:21:50.931Z,2.13
2023-04-04T11:24:42.992Z,2.30
2023-04-04T11:27:30.669Z,3.03
2023-04-04T11:30:17.676Z,2.57
2023-04-04T11:33:07.784Z,2.87
2023-04-04T11:36:00.167Z,3.80
2023-04-04T11:38:49.553Z,1.97
2023-04-04T11:42:10.120Z,2.20
2023-04-04T11:45:00.090Z,2.20
2023-04-04T11:47:47.791Z,2.10
2023-04-04T11:50:39.651Z,2.70
2023-04-04T11:53:26.594Z,3.17
2023-04-04T11:56:15.750Z,3.47
2023-04-04T11:59:11.332Z,2.87
2023-04-04T12:02:01.161Z,2.10
2023-04-04T12:04:48.361Z,2.27
2023-04-04T12:07:37.087Z,1.60
2023-04-04T12:10:24.628Z,2.30
2023-04-04T12:13:13.003Z,2.23
2023-04-04T12:16:00.524Z,2.13
2023-04-04T12:18:47.600Z,1.90
2023-04-04T12:21:34.551Z,3.50
2023-04-04T12:24:21.696Z,2.53
2023-04-04T12:27:08.868Z,3.73
2023-04-04T12:29:56.768Z,1.60
2023-04-04T12:32:45.514Z,2.20
2023-04-04T12:35:32.959Z,2.10
2023-04-04T12:38:20.001Z,2.53
2023-04-04T12:41:16.699Z,2.30
2023-04-04T12:44:05.477Z,2.30
2023-04-04T12:46:52.821Z,2.77
2023-04-04T12:49:45.840Z,2.60
2023-04-04T12:52:33.106Z,1.97
2023-04-04T12:55:22.813Z,3.13
2023-04-04T12:58:09.794Z,3.40
2023-04-04T13:01:00.667Z,2.10
2023-04-04T13:03:47.945Z,1.90
2023-04-04T13:06:37.308Z,2.00
2023-04-04T13:09:25.028Z,1.90
2023-04-04T13:12:12.834Z,2.20
2023-04-04T13:15:05.097Z,1.90
2023-04-04T13:17:52.810Z,1.80
2023-04-04T13:20:39.878Z,2.07
2023-04-04T13:23:26.934Z,1.87
2023-04-04T13:26:13.966Z,2.00
2023-04-04T13:29:00.898Z,2.57
2023-04-04T13:31:47.869Z,2.10
2023-04-04T13:34:36.136Z,1.67
2023-04-04T13:37:23.154Z,2.77
2023-04-04T13:40:10.758Z,2.10
2023-04-04T13:42:57.774Z,3.27
2023-04-04T13:45:44.935Z,3.40
2023-04-04T13:48:31.905Z,2.47
2023-04-04T13:51:18.871Z,2.33
2023-04-04T13:54:05.890Z,2.13
2023-04-04T13:56:54.648Z,2.20
2023-04-04T13:59:42.699Z,4.33
2023-04-04T14:02:29.784Z,2.77
2023-04-04T14:05:16.814Z,1.90
2023-04-04T14:08:03.760Z,1.97
2023-04-04T14:10:50.865Z,2.17
2023-04-04T14:13:37.814Z,2.03
2023-04-04T14:16:24.831Z,2.57
2023-04-04T14:19:11.795Z,2.73
2023-04-04T14:21:58.790Z,2.37
2023-04-04T14:24:46.012Z,1.97
2023-04-04T14:27:33.055Z,2.13
2023-04-04T14:30:20.164Z,2.27
2023-04-04T14:33:07.112Z,1.80
2023-04-04T14:35:54.119Z,2.10
2023-04-04T14:38:41.066Z,3.93
2023-04-04T14:41:28.830Z,2.33
2023-04-04T14:44:16.457Z,2.00
2023-04-04T14:47:03.549Z,2.20
2023-04-04T14:49:50.725Z,2.07
2023-04-04T14:52:37.674Z,2.00
2023-04-04T14:55:25.117Z,2.00
2023-04-04T14:58:13.019Z,2.47
2023-04-04T15:01:01.204Z,1.90
2023-04-04T15:03:49.154Z,2.20
2023-04-04T15:06:37.794Z,2.30
2023-04-04T15:09:24.761Z,1.93
2023-04-04T15:12:11.722Z,2.33
2023-04-04T15:14:58.647Z,2.37
2023-04-04T15:17:45.668Z,2.30
2023-04-04T15:20:32.693Z,2.30
2023-04-04T15:23:19.834Z,2.63
2023-04-04T15:26:06.881Z,2.40
2023-04-04T15:28:53.919Z,2.47
2023-04-04T15:31:41.119Z,1.97
2023-04-04T15:34:28.158Z,2.00
2023-04-04T15:37:16.064Z,2.13
2023-04-04T15:40:03.259Z,2.13
2023-04-04T15:42:51.321Z,1.97
2023-04-04T15:45:38.509Z,2.67
2023-04-04T15:48:25.752Z,2.60
2023-04-04T15:51:12.743Z,3.77
2023-04-04T15:53:59.754Z,2.00
2023-04-04T15:56:46.738Z,2.40
2023-04-04T15:59:34.300Z,2.40
2023-04-04T16:02:21.741Z,4.10
2023-04-04T16:05:08.860Z,2.20
2023-04-04T16:07:56.365Z,2.23
2023-04-04T16:10:44.510Z,4.07
2023-04-04T16:13:31.534Z,2.20
2023-04-04T16:16:18.577Z,2.20
2023-04-04T16:19:05.846Z,5.47
2023-04-04T16:21:52.873Z,3.40
2023-04-04T16:24:40.430Z,3.33
2023-04-04T16:27:27.449Z,5.13
2023-04-04T16:30:14.709Z,4.73
2023-04-04T16:33:01.771Z,5.13
2023-04-04T16:35:49.476Z,2.43
2023-04-04T16:38:36.443Z,2.67
2023-04-04T16:41:23.392Z,3.40
2023-04-04T16:44:12.239Z,2.30
2023-04-04T16:46:59.379Z,2.40
2023-04-04T16:49:47.961Z,3.03
2023-04-04T16:52:34.963Z,2.67
2023-04-04T16:55:26.065Z,4.27
2023-04-04T16:58:13.045Z,2.93
2023-04-04T17:01:00.164Z,2.30
2023-04-04T17:03:47.310Z,2.30
2023-04-04T17:06:34.386Z,1.90
2023-04-04T17:09:21.683Z,2.80
2023-04-04T17:12:09.759Z,2.57
2023-04-04T17:14:56.739Z,2.30
2023-04-04T17:17:43.752Z,2.23
2023-04-04T17:20:32.804Z,2.10
2023-04-04T17:23:21.252Z,2.00
2023-04-04T17:26:08.221Z,1.83
2023-04-04T17:28:55.469Z,3.30
2023-04-04T17:31:43.356Z,2.90
2023-04-04T17:34:30.450Z,1.80
2023-04-04T17:37:17.445Z,3.17
2023-04-04T17:40:05.336Z,2.97
2023-04-04T17:42:52.339Z,2.60
2023-04-04T17:45:39.471Z,2.80
2023-04-04T17:48:26.730Z,2.60
2023-04-04T17:51:13.844Z,2.53
2023-04-04T17:54:00.993Z,1.90
2023-04-04T17:56:48.465Z,2.57
2023-04-04T17:59:35.487Z,2.43
2023-04-04T18:02:22.565Z,4.63
2023-04-04T18:05:10.274Z,33.60
2023-04-04T18:07:58.180Z,27.67
2023-04-04T18:10:45.341Z,16.13
2023-04-04T18:13:32.344Z,6.90
2023-04-04T18:16:19.432Z,3.30
2023-04-04T18:19:06.550Z,3.07
2023-04-04T18:21:54.389Z,3.33
2023-04-04T18:24:41.452Z,3.37
2023-04-04T18:27:28.480Z,2.90
2023-04-04T18:30:15.583Z,3.13
2023-04-04T18:33:02.676Z,4.30
2023-04-04T18:35:49.705Z,5.77
2023-04-04T18:38:36.829Z,4.30
2023-04-04T18:41:23.942Z,3.67
2023-04-04T18:44:11.086Z,4.43
2023-04-04T18:47:00.494Z,5.13
2023-04-04T18:49:47.898Z,4.17
2023-04-04T18:52:36.242Z,3.03
2023-04-04T18:55:23.282Z,3.97
2023-04-04T18:58:10.330Z,3.20
2023-04-04T19:00:58.381Z,3.27
2023-04-04T19:03:48.509Z,3.40
2023-04-04T19:06:36.542Z,3.43
2023-04-04T19:09:24.154Z,4.33
2023-04-04T19:12:11.306Z,5.03
2023-04-04T19:14:59.602Z,2.70
2023-04-04T19:17:47.022Z,2.93
2023-04-04T19:20:34.395Z,2.90
2023-04-04T19:23:21.486Z,2.60
2023-04-04T19:26:08.597Z,2.93
2023-04-04T19:28:55.888Z,2.40
2023-04-04T19:31:42.952Z,2.67
2023-04-04T19:34:30.914Z,2.00
2023-04-04T19:37:18.322Z,4.77
2023-04-04T19:40:15.628Z,2.73
2023-04-04T19:43:03.543Z,2.80
2023-04-04T19:45:52.398Z,4.20
2023-04-04T19:48:50.456Z,3.30
2023-04-04T19:51:40.241Z,3.27
2023-04-04T19:54:29.609Z,4.80
2023-04-04T19:57:20.568Z,3.07
2023-04-04T20:00:14.125Z,3.13
2023-04-04T20:03:07.077Z,2.90
2023-04-04T20:05:57.967Z,2.80
2023-04-04T20:08:48.843Z,3.63
2023-04-04T20:11:36.444Z,2.70
2023-04-04T20:14:24.393Z,2.83
2023-04-04T20:17:11.498Z,2.70
2023-04-04T20:19:58.475Z,2.67
2023-04-04T20:22:45.759Z,4.27
2023-04-04T20:25:41.751Z,3.33
2023-04-04T20:28:28.864Z,3.17
2023-04-04T20:31:18.158Z,2.70
2023-04-04T20:34:07.319Z,3.40
2023-04-04T20:36:54.353Z,3.50
2023-04-04T20:39:46.109Z,3.40
2023-04-04T20:42:38.438Z,4.10
2023-04-04T20:45:39.985Z,3.60
2023-04-04T20:48:34.545Z,3.33
2023-04-04T20:51:24.667Z,3.43
2023-04-04T20:54:11.790Z,3.23
2023-04-04T20:56:58.771Z,3.27
2023-04-04T20:59:48.735Z,3.10
2023-04-04T21:02:35.771Z,3.20
2023-04-04T21:05:34.262Z,2.87
2023-04-04T21:08:29.422Z,2.90
2023-04-04T21:11:23.973Z,3.60
2023-04-04T21:14:24.834Z,3.17
2023-04-04T21:17:12.123Z,3.20
2023-04-04T21:19:59.161Z,3.63
2023-04-04T21:22:48.952Z,2.50
2023-04-04T21:25:44.941Z,2.87
2023-04-04T21:28:37.823Z,3.33
2023-04-04T21:31:27.431Z,2.80
2023-04-04T21:34:16.847Z,2.80
2023-04-04T21:37:05.493Z,2.47
2023-04-04T21:39:56.894Z,2.37
2023-04-04T21:42:44.278Z,2.93
2023-04-04T21:45:31.236Z,2.43
2023-04-04T21:48:18.272Z,2.40
2023-04-04T21:51:06.062Z,2.80
2023-04-04T21:53:53.398Z,2.90
2023-04-04T21:56:41.072Z,2.70
2023-04-04T21:59:28.228Z,2.70
2023-04-04T22:02:15.329Z,2.77
2023-04-04T22:05:02.383Z,2.60
2023-04-04T22:07:49.367Z,3.00
2023-04-04T22:10:45.218Z,2.93
2023-04-04T22:13:35.225Z,2.30
2023-04-04T22:16:22.266Z,2.80
2023-04-04T22:19:11.026Z,2.93
2023-04-04T22:21:58.687Z,2.90
2023-04-04T22:24:45.697Z,2.87
2023-04-04T22:27:34.317Z,3.20
2023-04-04T22:30:21.782Z,3.63
2023-04-04T22:33:09.323Z,2.97
2023-04-04T22:36:03.956Z,3.37
2023-04-04T22:38:56.545Z,3.13
2023-04-04T22:41:44.296Z,3.13
2023-04-04T22:44:31.257Z,2.50
2023-04-04T22:47:18.488Z,2.60
2023-04-04T22:50:06.266Z,3.03
2023-04-04T22:52:54.786Z,2.90
2023-04-04T22:55:42.089Z,2.93
2023-04-04T22:58:29.083Z,2.33
2023-04-04T23:01:16.386Z,2.70
2023-04-04T23:04:03.406Z,2.77
2023-04-04T23:06:50.407Z,2.90
2023-04-04T23:09:38.160Z,3.17
2023-04-04T23:12:26.085Z,3.03
2023-04-04T23:15:13.552Z,2.70
2023-04-04T23:18:00.660Z,3.30
2023-04-04T23:20:47.609Z,3.07
2023-04-04T23:23:34.590Z,2.93
2023-04-04T23:26:21.544Z,3.10
2023-04-04T23:29:08.524Z,3.13
2023-04-04T23:31:55.479Z,3.13
2023-04-04T23:34:42.422Z,3.03
2023-04-04T23:37:29.374Z,5.07
2023-04-04T23:40:16.432Z,3.27
2023-04-04T23:43:03.374Z,3.17
2023-04-04T23:45:51.706Z,3.10
2023-04-04T23:48:38.646Z,2.73
2023-04-04T23:51:26.280Z,2.83
2023-04-04T23:54:13.617Z,3.20
2023-04-04T23:57:00.693Z,3.20
2023-04-04T23:59:47.681Z,3.33
